WetterOnline ( https://www.wetteronline.de )

Wetter aktuell Hohenpeißenberg

Aktuelles Wetter: Hohenpeißenberg (986m)

6-stündlich | Neueste Meldungen
Ortszeit Temperatur Wetter
Mo, 22.07. 20:00 23.2° C wolkig
Mo, 22.07. 14:00 24.5° C leicht bewölkt
Mo, 22.07. 8:00 18.2° C wolkig
Mo, 22.07. 2:00 17.4° C fast wolkenlos
So, 21.07. 20:00 20.4° C wolkig
So, 21.07. 14:00 20.5° C leicht bewölkt
So, 21.07. 8:00 14.6° C leichter Regen
So, 21.07. 2:00 20.9° C wolkig
Ortszeit Temperatur Wetter
Mo, 22.07. 22:30 21.7° C wolkenlos
Mo, 22.07. 22:20 21.7° C wolkenlos
Mo, 22.07. 22:10 21.7° C fast wolkenlos
Mo, 22.07. 22:00 21.8° C leicht bewölkt
Mo, 22.07. 21:50 21.8° C leicht bewölkt
Mo, 22.07. 21:40 21.4° C leicht bewölkt
Mo, 22.07. 21:30 21.7° C wolkig
Mo, 22.07. 21:00 21.9° C wolkig
Mo, 22.07. 20:30 22.5° C wolkig
Mo, 22.07. 20:00 23.2° C wolkig
Mo, 22.07. 19:30 22.9° C wolkig
Ortszeit Relative Feuchte Sichtweite
Mo, 22.07. 20:00 52% 60 km
Mo, 22.07. 14:00 50% 55 km
Mo, 22.07. 8:00 72% 65 km
Mo, 22.07. 2:00 76% 45 km
So, 21.07. 20:00 60% 55 km
So, 21.07. 14:00 78% 55 km
So, 21.07. 8:00 98% 6 km
So, 21.07. 2:00 52% 65 km
Ortszeit Relative Feuchte Sichtweite
Mo, 22.07. 22:30 52% 65 km
Mo, 22.07. 22:20 52% -
Mo, 22.07. 22:10 51% -
Mo, 22.07. 22:00 50% 65 km
Mo, 22.07. 21:50 50% -
Mo, 22.07. 21:40 52% -
Mo, 22.07. 21:30 52% 55 km
Mo, 22.07. 21:00 51% 60 km
Mo, 22.07. 20:30 52% 55 km
Mo, 22.07. 20:00 52% 60 km
Mo, 22.07. 19:30 55% 45 km
Ortszeit Niederschlagsmenge Niederschlagsart
Mo, 22.07. 20:00 0.0 l/m2 in 12 Std. -
Mo, 22.07. 14:00 0.0 l/m2 in 6 Std. -
Mo, 22.07. 8:00 0.0 l/m2 in 12 Std. -
Mo, 22.07. 2:00 0.0 l/m2 in 6 Std. -
So, 21.07. 20:00 3 l/m2 in 12 Std. -
So, 21.07. 14:00 3 l/m2 in 6 Std. Regen
So, 21.07. 8:00 3 l/m2 in 12 Std. Regenschauer
So, 21.07. 2:00 0.0 l/m2 in 6 Std. -
Ortszeit Niederschlagsmenge Niederschlagsart
Mo, 22.07. 22:30 0.0 l/m2 in 1 Std. -
Mo, 22.07. 22:20 keine Meldung -
Mo, 22.07. 22:10 keine Meldung -
Mo, 22.07. 22:00 0.0 l/m2 in 1 Std. -
Mo, 22.07. 21:50 keine Meldung -
Mo, 22.07. 21:40 keine Meldung -
Mo, 22.07. 21:30 0.0 l/m2 in 1 Std. -
Mo, 22.07. 21:00 0.0 l/m2 in 1 Std. -
Mo, 22.07. 20:30 0.0 l/m2 in 1 Std. -
Mo, 22.07. 20:00 0.0 l/m2 in 1 Std. -
Mo, 22.07. 19:30 0.0 l/m2 in 1 Std. -
Ortszeit Stärke Spitze Richtung
km/h Bft. km/h Grad Sektor
Mo, 22.07. 20:00 7 2 22 30° NO
Mo, 22.07. 14:00 4 1 18 300° NW
Mo, 22.07. 8:00 7 2 11 190° S
Mo, 22.07. 2:00 7 2 22 210° SW
So, 21.07. 20:00 11 2 43 290° W
So, 21.07. 14:00 22 4 54 230° SW
So, 21.07. 8:00 13 3 52 260° W
So, 21.07. 2:00 14 3 29 230° SW
Ortszeit Stärke Spitze Richtung
km/h Bft. km/h Grad Sektor
Mo, 22.07. 22:30 9 2 13 70° O
Mo, 22.07. 22:20 9 2 - 70° O
Mo, 22.07. 22:10 9 2 - 70° O
Mo, 22.07. 22:00 11 2 13 60° NO
Mo, 22.07. 21:50 11 2 - 60° NO
Mo, 22.07. 21:40 11 2 - 50° NO
Mo, 22.07. 21:30 11 2 11 40° NO
Mo, 22.07. 21:00 9 2 13 40° NO
Mo, 22.07. 20:30 9 2 13 30° NO
Mo, 22.07. 20:00 7 2 11 30° NO
Mo, 22.07. 19:30 7 2 11 10° N
Ortszeit Untergrenze Bedeckung Gattung
total tief tief mittel hoch
Mo, 22.07. 20:00 5700 m 8/8 2/8 - - -
Mo, 22.07. 14:00 1230 m 4/8 5/8 - - -
Mo, 22.07. 8:00 7200 m 7/8 0/8 - - -
Mo, 22.07. 2:00 8400 m 2/8 0/8 - - -
So, 21.07. 20:00 2700 m 8/8 2/8 - - -
So, 21.07. 14:00 420 m 4/8 3/8 - - -
So, 21.07. 8:00 60 m 7/8 7/8 - - -
So, 21.07. 2:00 2700 m 7/8 5/8 - - -
Ortszeit Bedeckungsgrad in Achtel und Wolkenuntergrenze
Mo, 22.07. 22:30 keine Wolken
Mo, 22.07. 22:20 keine Wolken
Mo, 22.07. 22:10 1(9000m)
Mo, 22.07. 22:00 5(9000m)
Mo, 22.07. 21:50 5(9000m)
Mo, 22.07. 21:40 6(9000m)
Mo, 22.07. 21:30 1(9000m) 7(9000m) 7(12000m)
Mo, 22.07. 21:00 1(9000m) 7(9000m) 7(10500m)
Mo, 22.07. 20:30 4(9000m) 7(10500m) 8(10500m)
Mo, 22.07. 20:00 2(5700m) 4(7500m) 8(9000m)
Mo, 22.07. 19:30 3(4800m) 7(7500m) 8(8100m)
Ortszeit Stationsdruck (hPa) Tendenz (hPa in 3 Std.)
Mo, 22.07. 20:00 913 - 0,5
Mo, 22.07. 14:00 914 + 0,1
Mo, 22.07. 8:00 914 + 0,7
Mo, 22.07. 2:00 913 + 0,3
So, 21.07. 20:00 912 + 0,5
So, 21.07. 14:00 912 + 0,7
So, 21.07. 8:00 911 + 3,1
So, 21.07. 2:00 908 + 0,4
Ortszeit Stationsdruck (hPa) Tendenz (hPa in 3 Std.)
Mo, 22.07. 22:30 913 + 0,4
Mo, 22.07. 22:20 913 keine Meldung
Mo, 22.07. 22:10 913 keine Meldung
Mo, 22.07. 22:00 913 + 0,5
Mo, 22.07. 21:50 913 keine Meldung
Mo, 22.07. 21:40 913 keine Meldung
Mo, 22.07. 21:30 913 + 0,3
Mo, 22.07. 21:00 913 0,0
Mo, 22.07. 20:30 913 - 0,4
Mo, 22.07. 20:00 913 - 0,5
Mo, 22.07. 19:30 913 - 0,6
Ortszeit Schneehöhe (cm)
Mo, 22.07. 20:00 -
Mo, 22.07. 14:00 -
Mo, 22.07. 8:00 -
Mo, 22.07. 2:00 -
So, 21.07. 20:00 -
So, 21.07. 14:00 -
So, 21.07. 8:00 -
So, 21.07. 2:00 -
Ortszeit Schneehöhe (cm)
Mo, 22.07. 22:30 -
Mo, 22.07. 22:20 -
Mo, 22.07. 22:10 -
Mo, 22.07. 22:00 -
Mo, 22.07. 21:50 -
Mo, 22.07. 21:40 -
Mo, 22.07. 21:30 -
Mo, 22.07. 21:00 -
Mo, 22.07. 20:30 -
Mo, 22.07. 20:00 -
Mo, 22.07. 19:30 -
Link zu dieser Seite / Seite empfehlen

Das Wetter in ...